Time;durP1;ratioP1;P1;durP2;ratioP2;P2;SDS_P1;SDS_P2;PMS_P1;PMS_P2;Temp;Humidity;BMP_temperature;BMP_pressure;BME280_temperature;BME280_humidity;BME280_pressure;Samples;Min_cycle;Max_cycle;Signal;HPM_P1;HPM_P2
2024/01/11 00:00:42;;;;;;;48.20;21.95;;;-5.90;99.90;;;;;;5080839;28;20043;-82
2024/01/11 00:03:08;;;;;;;45.97;21.98;;;-5.80;99.90;;;;;;5113991;28;20047;-82
2024/01/11 00:05:34;;;;;;;48.90;22.40;;;-5.80;99.90;;;;;;5084313;28;20516;-82
2024/01/11 00:07:59;;;;;;;49.75;23.10;;;-5.00;99.90;;;;;;5093335;27;20078;-82
2024/01/11 00:10:25;;;;;;;48.20;22.50;;;-3.70;99.90;;;;;;5099335;27;20458;-82
2024/01/11 00:12:51;;;;;;;52.15;22.33;;;-4.90;99.90;;;;;;5095372;28;20048;-82
2024/01/11 00:15:16;;;;;;;50.33;21.92;;;-5.70;99.90;;;;;;5095662;28;20416;-83
2024/01/11 00:17:42;;;;;;;56.40;22.65;;;-5.50;99.90;;;;;;5138680;27;20066;-82
2024/01/11 00:20:09;;;;;;;49.40;22.60;;;-5.50;99.90;;;;;;5115883;27;20471;-83
2024/01/11 00:22:34;;;;;;;44.75;21.73;;;-5.40;99.90;;;;;;5115692;28;20126;-85
2024/01/11 00:25:00;;;;;;;50.47;22.92;;;-5.50;99.90;;;;;;5134261;27;20107;-82
2024/01/11 00:27:26;;;;;;;52.78;22.70;;;-5.40;99.90;;;;;;5134999;27;20039;-82
2024/01/11 00:29:51;;;;;;;50.15;21.90;;;-4.60;99.90;;;;;;5131557;27;20087;-83
2024/01/11 00:32:17;;;;;;;54.22;23.25;;;-5.50;99.90;;;;;;5128730;27;20038;-82
2024/01/11 00:34:43;;;;;;;54.67;24.75;;;-5.40;99.90;;;;;;5127667;27;20044;-83
2024/01/11 00:37:08;;;;;;;52.85;23.13;;;-5.50;99.90;;;;;;5099139;28;20427;-82
2024/01/11 00:39:34;;;;;;;53.95;23.27;;;-5.30;99.90;;;;;;5131317;27;20047;-82
2024/01/11 00:42:00;;;;;;;54.35;22.15;;;-5.30;99.90;;;;;;5138381;27;20483;-83
2024/01/11 00:44:25;;;;;;;49.72;23.27;;;-4.60;99.90;;;;;;5138127;27;20125;-82
2024/01/11 00:46:51;;;;;;;57.17;24.50;;;-5.30;99.90;;;;;;5138048;27;20040;-83
2024/01/11 00:49:17;;;;;;;54.42;24.45;;;-5.30;99.90;;;;;;5117358;27;20042;-82
2024/01/11 00:51:43;;;;;;;50.53;23.65;;;-5.50;99.90;;;;;;5136539;27;20445;-82
2024/01/11 00:54:08;;;;;;;51.47;22.73;;;-5.30;99.90;;;;;;5138262;27;20130;-82
2024/01/11 00:56:34;;;;;;;53.63;22.80;;;-4.60;99.90;;;;;;5119415;27;20096;-82
2024/01/11 00:59:00;;;;;;;51.75;23.13;;;-3.50;99.90;;;;;;5112547;28;20054;-84
2024/01/11 01:01:25;;;;;;;53.88;23.40;;;-5.40;99.90;;;;;;5113291;27;20035;-83
2024/01/11 01:03:51;;;;;;;50.15;23.00;;;-5.30;99.90;;;;;;5119477;27;20108;-83
2024/01/11 01:06:17;;;;;;;49.97;21.98;;;-4.10;99.90;;;;;;5119253;27;20043;-83
2024/01/11 01:08:43;;;;;;;53.95;24.15;;;-5.00;99.90;;;;;;5137034;27;20095;-83
2024/01/11 01:11:08;;;;;;;48.28;22.80;;;-4.20;99.90;;;;;;5100513;27;20102;-83
2024/01/11 01:13:34;;;;;;;57.33;23.90;;;-4.00;99.90;;;;;;5101903;28;20044;-83
2024/01/11 01:16:00;;;;;;;55.30;23.67;;;-5.30;99.90;;;;;;5098784;28;20051;-83
2024/01/11 01:18:25;;;;;;;53.22;22.88;;;-5.40;99.90;;;;;;5104678;27;20042;-84
2024/01/11 01:20:51;;;;;;;53.35;23.52;;;-4.50;99.90;;;;;;5134204;27;20074;-83
2024/01/11 01:23:18;;;;;;;53.97;22.48;;;-5.30;99.90;;;;;;5102679;28;20050;-82
2024/01/11 01:25:44;;;;;;;55.28;24.10;;;-5.40;99.90;;;;;;5104974;27;20039;-84
2024/01/11 01:28:10;;;;;;;55.05;23.10;;;-5.40;99.90;;;;;;5101893;27;20188;-83
2024/01/11 01:30:36;;;;;;;51.65;22.65;;;-5.30;99.90;;;;;;5118939;27;20070;-82
2024/01/11 01:33:02;;;;;;;53.80;24.40;;;-4.00;99.90;;;;;;5096593;28;20036;-82
2024/01/11 01:35:27;;;;;;;50.15;22.38;;;-5.30;99.90;;;;;;5098091;28;20446;-83
2024/01/11 01:37:53;;;;;;;53.83;24.08;;;-5.30;99.90;;;;;;5097915;27;20043;-83
2024/01/11 01:40:19;;;;;;;53.55;21.75;;;-5.30;99.90;;;;;;5118703;27;20082;-82
2024/01/11 01:42:45;;;;;;;48.63;21.92;;;-5.40;99.90;;;;;;5116049;27;20040;-83
2024/01/11 01:45:11;;;;;;;47.97;21.88;;;-5.50;99.90;;;;;;5102331;28;20040;-82
2024/01/11 01:47:39;;;;;;;52.03;22.33;;;-5.20;99.90;;;;;;5106770;27;20510;-83
2024/01/11 01:50:06;;;;;;;47.25;21.42;;;-5.50;99.90;;;;;;5118109;27;20074;-82
2024/01/11 01:52:33;;;;;;;46.70;21.27;;;-5.50;99.90;;;;;;5136823;27;20047;-83
2024/01/11 01:54:59;;;;;;;50.05;22.92;;;-4.30;99.90;;;;;;5117039;27;20043;-83
2024/01/11 01:57:25;;;;;;;49.00;21.58;;;-4.40;99.90;;;;;;5123044;27;20582;-83
2024/01/11 01:59:54;;;;;;;47.05;21.80;;;-5.20;99.90;;;;;;5107848;28;20036;-83
2024/01/11 02:02:21;;;;;;;49.53;21.25;;;-5.60;99.90;;;;;;5115970;28;20104;-82
2024/01/11 02:04:47;;;;;;;51.90;23.08;;;-5.70;99.90;;;;;;5080766;28;20043;-83
2024/01/11 02:07:13;;;;;;;45.20;21.00;;;-5.70;99.90;;;;;;5097470;28;20040;-84
2024/01/11 02:09:40;;;;;;;51.55;24.17;;;-4.90;99.90;;;;;;5126066;27;20039;-83
2024/01/11 02:12:09;;;;;;;50.17;23.08;;;-5.80;99.90;;;;;;5136405;27;20043;-84
2024/01/11 02:14:37;;;;;;;56.15;23.63;;;-5.70;99.90;;;;;;5136326;27;20035;-84
2024/01/11 02:17:02;;;;;;;47.97;21.60;;;-5.70;99.90;;;;;;5136286;27;20403;-84
2024/01/11 02:19:28;;;;;;;48.65;21.25;;;-5.70;99.90;;;;;;5135308;27;20126;-84
2024/01/11 02:21:57;;;;;;;48.90;20.42;;;-5.70;99.90;;;;;;5117558;27;20537;-84
2024/01/11 02:24:23;;;;;;;51.55;22.60;;;-5.90;99.90;;;;;;5135430;27;20043;-85
2024/01/11 02:27:00;;;;;;;43.70;19.55;;;-5.80;99.90;;;;;;5136449;27;20088;-83
2024/01/11 02:29:27;;;;;;;50.10;22.52;;;-4.70;99.90;;;;;;5117801;27;20080;-84
2024/01/11 02:31:53;;;;;;;49.15;21.77;;;-5.90;99.90;;;;;;5108320;28;20036;-84
2024/01/11 02:34:19;;;;;;;48.50;20.98;;;-7.20;99.90;;;;;;5115242;28;20046;-83
2024/01/11 02:36:45;;;;;;;48.35;21.00;;;-5.70;99.90;;;;;;5115556;28;20065;-84
2024/01/11 02:39:11;;;;;;;47.20;21.63;;;-4.40;99.90;;;;;;5097021;28;20093;-84
2024/01/11 02:41:37;;;;;;;51.67;23.15;;;-6.00;99.90;;;;;;5092560;27;20043;-83
2024/01/11 02:44:03;;;;;;;46.67;21.13;;;-4.80;99.90;;;;;;5117444;27;20062;-83
2024/01/11 02:46:30;;;;;;;50.45;22.23;;;-6.00;99.90;;;;;;5117551;27;20043;-83
2024/01/11 02:48:56;;;;;;;47.20;21.88;;;-4.10;99.90;;;;;;5098319;27;20035;-83
2024/01/11 02:51:21;;;;;;;49.55;22.42;;;-6.00;99.90;;;;;;5117957;27;20436;-84
2024/01/11 02:53:47;;;;;;;45.72;20.42;;;-5.90;99.90;;;;;;5134998;27;20557;-83
2024/01/11 02:56:12;;;;;;;47.35;21.58;;;-6.00;99.90;;;;;;5118035;27;20494;-83
2024/01/11 02:58:38;;;;;;;46.17;20.77;;;-6.00;99.90;;;;;;5134429;27;20039;-83
2024/01/11 03:01:04;;;;;;;45.15;19.95;;;-5.90;99.90;;;;;;5135578;27;20471;-83
2024/01/11 03:03:29;;;;;;;52.60;23.70;;;-6.00;99.90;;;;;;5135133;27;20047;-82
2024/01/11 03:05:55;;;;;;;47.33;21.50;;;-4.80;99.90;;;;;;5130573;27;20107;-83
2024/01/11 03:08:21;;;;;;;47.80;20.67;;;-6.10;99.90;;;;;;5114924;28;20046;-83
2024/01/11 03:10:46;;;;;;;42.80;20.30;;;-5.90;99.90;;;;;;5115199;28;20079;-83
2024/01/11 03:13:12;;;;;;;46.15;21.17;;;-6.10;99.90;;;;;;5116103;27;20048;-83
2024/01/11 03:15:38;;;;;;;54.97;23.25;;;-6.00;99.90;;;;;;5109705;28;20036;-83
2024/01/11 03:18:04;;;;;;;45.50;20.83;;;-4.90;99.90;;;;;;5114541;28;20396;-83
2024/01/11 03:20:30;;;;;;;53.42;22.75;;;-5.80;99.90;;;;;;5114268;28;20067;-83
2024/01/11 03:22:55;;;;;;;50.10;21.50;;;-5.70;99.90;;;;;;5096138;28;20054;-83
2024/01/11 03:25:21;;;;;;;54.55;24.83;;;-5.60;99.90;;;;;;5108333;28;20036;-83
2024/01/11 03:27:47;;;;;;;51.08;22.88;;;-5.60;99.90;;;;;;5113318;28;20480;-84
2024/01/11 03:30:13;;;;;;;47.97;22.23;;;-5.70;99.90;;;;;;5114370;28;20090;-83
2024/01/11 03:32:38;;;;;;;50.00;21.05;;;-5.50;99.90;;;;;;5114252;28;20105;-83
2024/01/11 03:35:07;;;;;;;60.13;24.65;;;-5.00;99.90;;;;;;5131146;27;20070;-83
2024/01/11 03:37:33;;;;;;;49.55;22.00;;;-5.40;99.90;;;;;;5135035;27;20054;-83
2024/01/11 03:39:59;;;;;;;53.60;22.52;;;-5.40;99.90;;;;;;5119538;27;20372;-84
2024/01/11 03:42:25;;;;;;;56.97;23.30;;;-5.30;99.90;;;;;;5113173;28;20058;-84
2024/01/11 03:44:51;;;;;;;54.20;21.75;;;-4.80;99.90;;;;;;5113318;28;20051;-83
2024/01/11 03:47:16;;;;;;;48.58;21.98;;;-5.30;99.90;;;;;;5128162;27;20043;-83
2024/01/11 03:49:42;;;;;;;51.58;21.95;;;-5.20;99.90;;;;;;5133086;27;20043;-84
2024/01/11 03:52:08;;;;;;;52.83;23.38;;;-5.30;99.90;;;;;;5132837;27;20090;-84
2024/01/11 03:54:33;;;;;;;52.42;21.88;;;-4.30;99.90;;;;;;5114806;27;20040;-83
2024/01/11 03:56:59;;;;;;;55.78;22.00;;;-5.10;99.90;;;;;;5112629;28;20527;-83
2024/01/11 03:59:25;;;;;;;53.40;21.67;;;-2.90;99.90;;;;;;5112769;28;20369;-83
2024/01/11 04:01:52;;;;;;;54.70;22.60;;;-5.10;99.90;;;;;;5095600;28;20042;-84
2024/01/11 04:04:18;;;;;;;56.97;22.88;;;-5.20;99.90;;;;;;5115366;27;20078;-84
2024/01/11 04:06:44;;;;;;;51.75;23.00;;;-5.00;99.90;;;;;;5112899;28;20117;-84
2024/01/11 04:09:10;;;;;;;53.70;23.23;;;-4.90;99.90;;;;;;5130135;27;20054;-84
2024/01/11 04:11:36;;;;;;;54.72;24.95;;;-5.10;99.90;;;;;;5125376;27;20027;-83
2024/01/11 04:14:02;;;;;;;62.25;24.73;;;-4.80;99.90;;;;;;5134205;27;20387;-83
2024/01/11 04:16:28;;;;;;;54.83;24.38;;;-5.50;99.90;;;;;;5134255;27;20107;-85
2024/01/11 04:18:53;;;;;;;55.38;23.48;;;-3.60;99.90;;;;;;5121345;27;20436;-83
2024/01/11 04:21:30;;;;;;;59.63;24.73;;;-5.00;99.90;;;;;;5113592;28;20071;-83
2024/01/11 04:23:56;;;;;;;64.97;25.75;;;-2.90;99.90;;;;;;5112701;28;20079;-83
2024/01/11 04:26:22;;;;;;;60.47;25.95;;;-4.50;99.90;;;;;;5112580;28;20048;-84
2024/01/11 04:28:49;;;;;;;64.57;27.95;;;-3.40;99.90;;;;;;5113657;28;20046;-84
2024/01/11 04:31:16;;;;;;;59.30;25.55;;;-4.40;99.90;;;;;;5112276;28;20047;-83
2024/01/11 04:33:43;;;;;;;64.10;27.15;;;-4.40;99.90;;;;;;5113376;28;20086;-83
2024/01/11 04:36:09;;;;;;;60.22;27.63;;;-4.40;99.90;;;;;;5113642;28;20109;-83
2024/01/11 04:38:35;;;;;;;63.58;27.38;;;-4.30;99.90;;;;;;5115440;28;20036;-84
2024/01/11 04:41:01;;;;;;;60.38;26.92;;;-4.30;99.90;;;;;;5115728;28;20047;-84
2024/01/11 04:43:27;;;;;;;58.53;26.17;;;-4.20;99.90;;;;;;5115835;28;20078;-83
2024/01/11 04:45:52;;;;;;;57.22;26.85;;;-4.20;99.90;;;;;;5115001;28;20043;-83
2024/01/11 04:48:18;;;;;;;63.03;27.13;;;-3.20;99.90;;;;;;5132551;28;20085;-83
2024/01/11 04:50:44;;;;;;;61.63;27.13;;;-4.10;99.90;;;;;;5133716;28;20046;-83
2024/01/11 04:53:11;;;;;;;63.05;27.05;;;-3.60;99.90;;;;;;5128249;28;20039;-84
2024/01/11 04:55:36;;;;;;;60.55;26.80;;;-4.10;99.90;;;;;;5125800;28;20043;-83
2024/01/11 04:58:02;;;;;;;67.20;27.05;;;-3.40;99.90;;;;;;5132352;27;20055;-83
2024/01/11 05:00:28;;;;;;;60.78;26.33;;;-3.90;99.90;;;;;;5132516;28;20054;-83
2024/01/11 05:02:54;;;;;;;52.60;25.23;;;-3.90;99.90;;;;;;5132833;28;20035;-83
2024/01/11 05:05:20;;;;;;;55.45;25.48;;;-3.90;99.90;;;;;;5133691;28;20039;-84
2024/01/11 05:07:46;;;;;;;64.35;27.23;;;-3.80;99.90;;;;;;5133529;28;20105;-84
2024/01/11 05:10:12;;;;;;;60.97;26.83;;;-3.80;99.90;;;;;;5132323;28;20039;-85
2024/01/11 05:12:38;;;;;;;64.88;26.25;;;-3.70;99.90;;;;;;5115496;28;20104;-83
2024/01/11 05:15:06;;;;;;;62.20;27.05;;;-3.80;99.90;;;;;;5112427;28;20051;-83
2024/01/11 05:17:31;;;;;;;60.58;25.33;;;-3.70;99.90;;;;;;5112267;28;20047;-83
2024/01/11 05:19:57;;;;;;;65.20;27.08;;;-3.70;99.90;;;;;;5116918;28;20101;-84
2024/01/11 05:22:23;;;;;;;61.05;27.50;;;-3.60;99.90;;;;;;5116816;28;20039;-85
2024/01/11 05:24:49;;;;;;;56.90;25.13;;;-3.60;99.90;;;;;;5116149;27;20434;-83
2024/01/11 05:27:14;;;;;;;58.75;24.73;;;-2.60;99.90;;;;;;5136074;27;20455;-84
2024/01/11 05:29:40;;;;;;;61.17;27.65;;;-3.60;99.90;;;;;;5117577;27;20066;-83
2024/01/11 05:32:06;;;;;;;59.50;24.80;;;-3.60;99.90;;;;;;5115569;28;20058;-83
2024/01/11 05:34:31;;;;;;;65.55;26.35;;;-3.50;99.90;;;;;;5116584;28;20039;-83
2024/01/11 05:36:57;;;;;;;54.55;25.20;;;-3.40;99.90;;;;;;5115014;28;20376;-84
2024/01/11 05:39:23;;;;;;;59.28;25.77;;;-3.20;99.90;;;;;;5134949;27;20388;-83
2024/01/11 05:41:48;;;;;;;60.88;25.95;;;-3.40;99.90;;;;;;5137213;27;20044;-83
2024/01/11 05:44:14;;;;;;;58.40;26.00;;;-2.60;99.90;;;;;;5118617;27;20471;-83
2024/01/11 05:46:40;;;;;;;57.28;25.80;;;-3.30;99.90;;;;;;5137055;27;20042;-84
2024/01/11 05:49:06;;;;;;;59.00;25.48;;;-1.60;99.90;;;;;;5119963;27;20054;-83
2024/01/11 05:51:31;;;;;;;59.47;27.38;;;-3.20;99.90;;;;;;5114808;28;20491;-84
2024/01/11 05:53:57;;;;;;;61.00;25.15;;;-2.80;99.90;;;;;;5116304;28;20047;-83
2024/01/11 05:56:23;;;;;;;52.33;24.25;;;-2.00;99.90;;;;;;5114899;28;20480;-84
2024/01/11 05:58:48;;;;;;;60.35;26.08;;;-2.80;99.90;;;;;;5130852;27;20055;-84
2024/01/11 06:01:14;;;;;;;59.55;25.73;;;-2.60;99.90;;;;;;5136440;27;20130;-83
2024/01/11 06:03:40;;;;;;;61.72;25.75;;;-3.00;99.90;;;;;;5135288;27;20047;-83
2024/01/11 06:06:06;;;;;;;54.03;24.75;;;-3.00;99.90;;;;;;5136403;27;20043;-83
2024/01/11 06:08:32;;;;;;;62.53;26.85;;;-3.50;99.90;;;;;;5135333;27;20051;-84
2024/01/11 06:10:58;;;;;;;66.10;27.70;;;-3.20;99.90;;;;;;5135504;27;20058;-84
2024/01/11 06:13:24;;;;;;;61.28;26.30;;;-2.90;99.90;;;;;;5135135;27;20078;-84
2024/01/11 06:15:50;;;;;;;60.75;27.08;;;-1.60;99.90;;;;;;5136627;27;20097;-85
2024/01/11 06:18:16;;;;;;;64.47;27.58;;;-3.10;99.90;;;;;;5136055;27;20039;-84
2024/01/11 06:20:41;;;;;;;62.20;26.10;;;-2.00;99.90;;;;;;5118255;27;20070;-83
2024/01/11 06:23:07;;;;;;;64.07;27.15;;;-2.80;99.90;;;;;;5136105;27;20042;-84
2024/01/11 06:25:33;;;;;;;60.08;26.02;;;-2.80;99.90;;;;;;5136239;27;20047;-84
2024/01/11 06:27:59;;;;;;;55.45;25.15;;;-0.10;99.90;;;;;;5136393;27;20100;-84
2024/01/11 06:30:25;;;;;;;58.97;27.25;;;-3.20;99.90;;;;;;5133913;27;20051;-84
2024/01/11 06:32:51;;;;;;;54.22;25.27;;;-2.80;99.90;;;;;;5131271;27;20073;-83
2024/01/11 06:35:16;;;;;;;56.10;24.63;;;-2.70;99.90;;;;;;5114383;28;20044;-84
2024/01/11 06:37:42;;;;;;;59.42;26.58;;;-2.40;99.90;;;;;;5116282;27;20078;-84
2024/01/11 06:40:08;;;;;;;59.45;26.52;;;-1.60;99.90;;;;;;5131308;27;20047;-83
2024/01/11 06:42:34;;;;;;;55.97;25.70;;;-2.60;99.90;;;;;;5113898;28;20043;-84
2024/01/11 06:45:01;;;;;;;54.40;24.67;;;-2.60;99.90;;;;;;5131201;27;20058;-83
2024/01/11 06:47:26;;;;;;;57.95;24.75;;;-2.60;99.90;;;;;;5113880;28;20044;-84
2024/01/11 06:49:53;;;;;;;59.70;26.45;;;-1.80;99.90;;;;;;5115056;28;20055;-84
2024/01/11 06:52:19;;;;;;;54.65;25.08;;;-1.90;99.90;;;;;;5096746;28;20048;-84
2024/01/11 06:54:45;;;;;;;54.45;25.30;;;-2.50;99.90;;;;;;5132500;27;20035;-84
2024/01/11 06:57:11;;;;;;;56.40;25.85;;;-2.50;99.90;;;;;;5131315;27;20658;-84
2024/01/11 06:59:37;;;;;;;61.25;27.25;;;-2.20;99.90;;;;;;5113929;28;20039;-84
2024/01/11 07:02:03;;;;;;;51.75;25.20;;;-2.50;99.90;;;;;;5114112;27;20048;-84
2024/01/11 07:04:29;;;;;;;54.90;23.90;;;-2.40;99.90;;;;;;5113898;28;20056;-84
2024/01/11 07:06:55;;;;;;;54.90;24.77;;;-2.00;99.90;;;;;;5127660;27;20059;-84
2024/01/11 07:09:20;;;;;;;51.15;24.33;;;-2.30;99.90;;;;;;5134132;27;20506;-84
2024/01/11 07:11:46;;;;;;;54.83;23.90;;;-2.30;99.90;;;;;;5134115;27;20039;-84
2024/01/11 07:14:12;;;;;;;58.33;26.55;;;-2.20;99.90;;;;;;5134140;27;20134;-85
2024/01/11 07:16:37;;;;;;;55.47;25.85;;;-1.80;99.90;;;;;;5105791;27;20122;-84
2024/01/11 07:19:03;;;;;;;53.90;24.10;;;-1.40;99.90;;;;;;5133864;27;20049;-84
2024/01/11 07:21:31;;;;;;;57.70;24.60;;;-2.20;99.90;;;;;;5133962;27;20406;-85
2024/01/11 07:23:58;;;;;;;53.85;25.88;;;-1.60;99.90;;;;;;5133789;27;20035;-86
2024/01/11 07:26:25;;;;;;;51.22;22.77;;;-2.10;99.90;;;;;;5134062;27;20515;-85
2024/01/11 07:28:51;;;;;;;50.88;24.35;;;-2.10;99.90;;;;;;5133112;27;20395;-87
2024/01/11 07:31:17;;;;;;;52.58;23.13;;;-2.10;99.90;;;;;;5133897;27;20039;-85
2024/01/11 07:33:43;;;;;;;53.17;24.08;;;-0.70;99.90;;;;;;5135006;27;20047;-83
2024/01/11 07:36:09;;;;;;;49.13;20.95;;;-1.20;99.90;;;;;;5127203;27;20031;-84
2024/01/11 07:38:35;;;;;;;50.92;22.83;;;-2.10;99.90;;;;;;5133596;27;20072;-83
2024/01/11 07:41:01;;;;;;;54.10;24.08;;;-0.90;99.90;;;;;;5126936;27;20036;-83
2024/01/11 07:43:28;;;;;;;53.72;24.55;;;-2.00;99.90;;;;;;5125264;27;20109;-83
2024/01/11 07:45:56;;;;;;;52.25;23.98;;;-2.00;99.90;;;;;;5134830;27;20051;-84
2024/01/11 07:48:22;;;;;;;48.33;24.05;;;-1.90;99.90;;;;;;5133342;27;20043;-84
2024/01/11 07:50:49;;;;;;;47.85;22.35;;;-0.60;99.90;;;;;;5123065;27;20134;-84
2024/01/11 07:53:15;;;;;;;47.75;23.33;;;-0.80;99.90;;;;;;5133346;27;20069;-87
2024/01/11 07:55:41;;;;;;;50.45;22.00;;;-1.90;99.90;;;;;;5134436;27;20031;-88
2024/01/11 07:58:07;;;;;;;52.38;22.55;;;-1.80;99.90;;;;;;5116264;27;20051;-85
2024/01/11 08:00:33;;;;;;;50.70;23.15;;;-0.60;99.90;;;;;;5134863;27;20043;-83
2024/01/11 08:02:59;;;;;;;48.63;22.83;;;-2.20;99.90;;;;;;5133482;27;20104;-83
2024/01/11 08:05:25;;;;;;;49.90;22.95;;;-0.40;99.90;;;;;;5133144;27;20083;-84
2024/01/11 08:07:51;;;;;;;56.05;25.17;;;-1.80;99.90;;;;;;5133387;27;20046;-83
2024/01/11 08:10:17;;;;;;;53.70;23.92;;;-1.80;99.90;;;;;;5134046;27;20515;-84
2024/01/11 08:12:42;;;;;;;49.40;23.27;;;-0.80;99.90;;;;;;5134565;27;20122;-83
2024/01/11 08:15:14;;;;;;;52.53;23.40;;;-1.70;99.90;;;;;;5134483;27;20047;-84
2024/01/11 08:17:45;;;;;;;51.63;23.73;;;-1.60;99.90;;;;;;5132955;27;20051;-83
2024/01/11 08:20:11;;;;;;;49.78;24.13;;;-1.60;99.90;;;;;;5133967;27;20483;-83
2024/01/11 08:22:41;;;;;;;50.42;23.38;;;-1.60;99.90;;;;;;5134370;27;20444;-83
2024/01/11 08:25:07;;;;;;;52.15;23.80;;;-1.60;99.90;;;;;;5134046;27;20108;-83
2024/01/11 08:27:33;;;;;;;51.92;23.90;;;-1.60;99.90;;;;;;5133031;27;20411;-83
2024/01/11 08:30:00;;;;;;;42.47;22.55;;;-1.20;99.90;;;;;;5133989;28;20050;-83
2024/01/11 08:32:26;;;;;;;51.85;23.02;;;-1.50;99.90;;;;;;5115520;28;20039;-83
2024/01/11 08:34:52;;;;;;;47.10;22.58;;;-1.40;99.90;;;;;;5133925;28;20479;-83
2024/01/11 08:37:18;;;;;;;46.42;21.20;;;-1.40;99.90;;;;;;5132633;28;20041;-83
2024/01/11 08:39:46;;;;;;;49.45;22.67;;;-1.00;99.90;;;;;;5133932;27;20046;-83
2024/01/11 08:42:12;;;;;;;45.15;21.48;;;-1.40;99.90;;;;;;5132714;28;20053;-83
2024/01/11 08:44:42;;;;;;;47.75;22.95;;;-0.80;99.90;;;;;;5132256;28;20031;-83
2024/01/11 08:47:09;;;;;;;49.35;22.80;;;-1.40;99.90;;;;;;5133950;27;20109;-84
2024/01/11 08:49:38;;;;;;;46.83;22.58;;;-1.30;99.90;;;;;;5132374;28;20035;-83
2024/01/11 08:52:04;;;;;;;48.85;22.15;;;-1.20;99.90;;;;;;5132505;27;20047;-83
2024/01/11 08:54:32;;;;;;;42.95;21.83;;;-1.10;99.90;;;;;;5119686;27;20053;-83
2024/01/11 08:56:58;;;;;;;41.50;20.48;;;-1.10;99.90;;;;;;5137886;27;20050;-83
2024/01/11 08:59:24;;;;;;;44.53;21.40;;;-0.40;99.90;;;;;;5137853;27;20084;-83
2024/01/11 09:01:53;;;;;;;44.15;21.52;;;-1.00;99.90;;;;;;5137914;27;20039;-83
2024/01/11 09:04:18;;;;;;;47.08;23.13;;;-0.40;99.90;;;;;;5137644;27;20039;-83
2024/01/11 09:06:45;;;;;;;45.88;21.58;;;-0.90;99.90;;;;;;5136642;27;20035;-82
2024/01/11 09:09:13;;;;;;;44.10;20.83;;;-0.90;99.90;;;;;;5136455;27;20035;-83
2024/01/11 09:11:40;;;;;;;45.67;21.35;;;-0.90;99.90;;;;;;5137614;27;20039;-84
2024/01/11 09:14:07;;;;;;;42.65;20.70;;;-0.80;99.90;;;;;;5137729;27;20046;-83
2024/01/11 09:16:33;;;;;;;41.30;20.38;;;0.00;99.90;;;;;;5136715;27;20039;-82
2024/01/11 09:19:02;;;;;;;44.03;21.58;;;-0.60;99.90;;;;;;5136116;27;20039;-84
2024/01/11 09:21:27;;;;;;;44.22;20.95;;;-0.70;99.90;;;;;;5135986;27;20046;-84
2024/01/11 09:23:53;;;;;;;41.35;20.98;;;-0.60;99.90;;;;;;5137328;27;20042;-83
2024/01/11 09:26:19;;;;;;;43.40;21.02;;;0.20;99.90;;;;;;5119036;27;20045;-83
2024/01/11 09:28:45;;;;;;;42.53;20.30;;;-0.60;99.90;;;;;;5137725;27;20097;-83
2024/01/11 09:31:11;;;;;;;39.90;20.20;;;0.10;99.90;;;;;;5136414;27;20043;-88
2024/01/11 09:33:37;;;;;;;40.72;20.77;;;-0.50;99.90;;;;;;5105661;27;20051;-87
2024/01/11 09:36:04;;;;;;;41.10;19.92;;;0.60;99.90;;;;;;5158308;27;20042;-88
2024/01/11 09:38:29;;;;;;;41.72;19.70;;;-0.40;99.90;;;;;;5135846;27;20058;-88
2024/01/11 09:41:15;;;;;;;42.08;20.45;;;-0.30;99.90;;;;;;5153034;27;20030;-87
2024/01/11 09:43:42;;;;;;;41.45;21.58;;;0.00;99.90;;;;;;5138809;27;20055;-87
2024/01/11 09:46:09;;;;;;;41.75;20.92;;;-0.30;99.90;;;;;;5122503;27;20078;-86
2024/01/11 09:48:37;;;;;;;41.28;19.83;;;0.40;99.90;;;;;;5139157;27;20054;-87
2024/01/11 09:51:08;;;;;;;42.05;19.77;;;0.80;99.90;;;;;;5157583;27;20043;-87
2024/01/11 09:53:38;;;;;;;46.70;20.90;;;-0.10;99.90;;;;;;5139148;27;20482;-85
2024/01/11 09:56:08;;;;;;;38.20;19.35;;;-0.10;99.90;;;;;;5138685;27;20487;-85
2024/01/11 09:58:38;;;;;;;40.58;20.58;;;0.30;99.90;;;;;;5118140;27;20043;-87
2024/01/11 10:01:08;;;;;;;39.88;19.48;;;0.00;99.90;;;;;;5118419;27;20114;-86
2024/01/11 10:03:34;;;;;;;35.03;18.52;;;0.00;99.90;;;;;;5120095;27;20483;-86
2024/01/11 10:06:02;;;;;;;40.63;20.02;;;0.00;99.90;;;;;;5138277;27;20041;-87
2024/01/11 10:08:29;;;;;;;38.83;20.10;;;0.20;99.90;;;;;;5138842;27;20125;-85
2024/01/11 10:10:55;;;;;;;37.20;18.85;;;0.10;99.90;;;;;;5157330;27;20121;-86
2024/01/11 10:13:30;;;;;;;38.15;19.65;;;0.10;99.90;;;;;;5121491;27;20129;-87
2024/01/11 10:16:16;;;;;;;36.70;18.13;;;0.20;99.90;;;;;;5138606;27;20038;-85
2024/01/11 10:18:42;;;;;;;39.50;20.95;;;0.70;99.90;;;;;;5137992;27;20050;-87
2024/01/11 10:21:09;;;;;;;37.35;18.90;;;1.20;99.90;;;;;;5138842;27;20387;-85
2024/01/11 10:23:36;;;;;;;38.20;19.27;;;0.90;99.90;;;;;;5138430;27;20088;-83
2024/01/11 10:26:02;;;;;;;41.53;20.50;;;0.20;99.90;;;;;;5121773;27;20034;-86
2024/01/11 10:28:28;;;;;;;39.00;19.80;;;0.30;99.90;;;;;;5157013;27;20068;-84
2024/01/11 10:30:55;;;;;;;36.42;18.77;;;0.30;99.90;;;;;;5138291;27;20035;-84
2024/01/11 10:33:21;;;;;;;38.45;19.75;;;0.30;99.90;;;;;;5156890;27;20035;-84
2024/01/11 10:35:50;;;;;;;39.20;18.95;;;0.30;99.90;;;;;;5138507;27;20042;-84
2024/01/11 10:38:17;;;;;;;35.58;17.80;;;0.40;99.90;;;;;;5156839;27;20450;-83
2024/01/11 10:40:44;;;;;;;35.60;18.23;;;0.40;99.90;;;;;;5121142;27;20074;-82
2024/01/11 10:43:15;;;;;;;35.72;18.10;;;0.20;99.90;;;;;;5138358;27;20513;-84
2024/01/11 10:45:42;;;;;;;34.13;18.35;;;0.50;99.90;;;;;;5138189;27;20077;-84
2024/01/11 10:48:14;;;;;;;37.85;19.05;;;0.50;99.90;;;;;;5137962;27;20058;-83
2024/01/11 10:50:43;;;;;;;37.55;19.13;;;1.30;99.90;;;;;;5156375;27;20050;-86
2024/01/11 10:53:19;;;;;;;32.83;18.10;;;1.30;99.90;;;;;;5137661;27;20053;-87
2024/01/11 10:55:45;;;;;;;34.13;18.85;;;0.80;99.90;;;;;;5156615;27;20043;-91
2024/01/11 10:58:12;;;;;;;36.72;18.38;;;0.70;99.90;;;;;;5138376;27;20082;-87
2024/01/11 11:00:37;;;;;;;33.90;17.27;;;0.70;99.90;;;;;;5138342;27;20035;-86
2024/01/11 11:03:06;;;;;;;31.88;17.23;;;0.60;99.90;;;;;;5138026;27;20131;-85
2024/01/11 11:05:37;;;;;;;32.63;18.35;;;0.60;99.90;;;;;;5156436;27;20061;-86
2024/01/11 11:08:05;;;;;;;37.15;18.40;;;0.60;99.90;;;;;;5137650;27;20058;-86
2024/01/11 11:10:34;;;;;;;34.58;17.88;;;0.60;99.90;;;;;;5137685;27;20039;-86
2024/01/11 11:13:00;;;;;;;35.15;17.05;;;0.60;99.90;;;;;;5120313;27;20108;-87
2024/01/11 11:15:29;;;;;;;31.88;18.02;;;1.20;99.90;;;;;;5137296;27;20043;-86
2024/01/11 11:17:55;;;;;;;34.38;17.73;;;0.90;99.90;;;;;;5137650;27;20043;-86
2024/01/11 11:20:21;;;;;;;37.58;18.40;;;1.30;99.90;;;;;;5137401;27;20191;-87
2024/01/11 11:23:10;;;;;;;35.17;18.65;;;0.80;99.90;;;;;;5156079;27;20087;-87
2024/01/11 11:25:37;;;;;;;38.00;18.05;;;1.30;99.90;;;;;;5137343;27;20635;-87
2024/01/11 11:28:06;;;;;;;34.60;17.38;;;0.80;99.90;;;;;;5137119;27;20034;-88
2024/01/11 11:30:33;;;;;;;34.25;18.25;;;0.80;99.90;;;;;;5155642;27;20061;-86
2024/01/11 11:33:10;;;;;;;33.15;18.40;;;1.50;99.90;;;;;;5117362;27;20053;-88
2024/01/11 11:35:37;;;;;;;35.10;17.95;;;0.90;99.90;;;;;;5116991;27;20053;-86
2024/01/11 11:38:05;;;;;;;31.55;17.20;;;0.90;99.90;;;;;;5116797;27;20051;-88
2024/01/11 11:40:39;;;;;;;38.20;18.27;;;0.90;99.90;;;;;;5135949;27;20040;-88
2024/01/11 11:43:08;;;;;;;35.90;17.95;;;0.90;99.90;;;;;;5136246;27;20039;-89
2024/01/11 11:45:35;;;;;;;36.90;18.08;;;1.50;99.90;;;;;;5122520;27;20061;-87
2024/01/11 11:48:01;;;;;;;37.70;18.67;;;0.60;99.90;;;;;;5130550;27;20047;-85
2024/01/11 11:50:31;;;;;;;32.15;17.02;;;2.20;99.90;;;;;;5140031;27;20476;-89
2024/01/11 11:52:57;;;;;;;33.58;16.55;;;1.60;99.90;;;;;;5117167;27;20053;-89
2024/01/11 11:55:28;;;;;;;34.92;18.10;;;0.90;99.90;;;;;;5117525;27;20047;-89
2024/01/11 11:57:54;;;;;;;31.95;17.67;;;0.90;99.90;;;;;;5135120;27;20090;-88
2024/01/11 12:00:20;;;;;;;33.47;17.67;;;1.40;99.90;;;;;;5135440;27;20042;-91
2024/01/11 12:02:51;;;;;;;36.17;18.40;;;1.40;99.90;;;;;;5134346;27;20039;-89
2024/01/11 12:05:18;;;;;;;37.28;18.65;;;1.40;99.90;;;;;;5133495;27;20107;-88
2024/01/11 12:07:45;;;;;;;35.63;18.30;;;0.90;99.90;;;;;;5134233;27;20127;-90
2024/01/11 12:10:10;;;;;;;34.80;18.83;;;0.90;99.90;;;;;;5136455;27;20047;-89
2024/01/11 12:12:37;;;;;;;34.35;18.10;;;0.90;99.90;;;;;;5136909;27;20043;-88
2024/01/11 12:15:07;;;;;;;31.95;17.60;;;0.90;99.90;;;;;;5118457;27;20047;-87
2024/01/11 12:17:33;;;;;;;33.85;16.88;;;0.90;99.90;;;;;;5118744;27;20172;-87
2024/01/11 12:19:59;;;;;;;33.20;17.25;;;1.20;99.90;;;;;;5131624;27;20100;-88
2024/01/11 12:22:24;;;;;;;32.67;17.25;;;1.10;99.90;;;;;;5119692;27;20513;-88
2024/01/11 12:24:51;;;;;;;33.65;17.40;;;1.80;99.90;;;;;;5119118;27;20043;-88